createdAt,value
2018-07-10T00:00:06.167Z,52.20
2018-07-10T00:01:06.030Z,52.50
2018-07-10T00:02:05.468Z,52.40
2018-07-10T00:03:06.411Z,52.30
2018-07-10T00:04:08.925Z,52.20
2018-07-10T00:05:06.338Z,52.30
2018-07-10T00:06:10.877Z,52.30
2018-07-10T00:07:07.986Z,52.40
2018-07-10T00:08:06.406Z,52.50
2018-07-10T00:09:06.612Z,52.40
2018-07-10T00:10:06.389Z,52.80
2018-07-10T00:11:10.991Z,52.50
2018-07-10T00:12:08.818Z,52.50
2018-07-10T00:13:06.492Z,52.40
2018-07-10T00:14:05.900Z,52.50
2018-07-10T00:15:05.771Z,52.50
2018-07-10T00:16:12.977Z,52.50
2018-07-10T00:17:06.384Z,52.50
2018-07-10T00:18:06.374Z,52.60
2018-07-10T00:19:06.354Z,52.60
2018-07-10T00:20:06.073Z,52.30
2018-07-10T00:21:05.825Z,52.30
2018-07-10T00:22:11.327Z,52.20
2018-07-10T00:23:08.867Z,52.60
2018-07-10T00:24:05.897Z,52.60
2018-07-10T00:25:06.348Z,52.90
2018-07-10T00:26:06.243Z,52.80
2018-07-10T00:27:11.186Z,52.60
2018-07-10T00:28:06.512Z,52.60
2018-07-10T00:29:09.094Z,53.00
2018-07-10T00:30:05.883Z,53.00
2018-07-10T00:31:06.349Z,53.10
2018-07-10T00:32:10.772Z,53.20
2018-07-10T00:33:09.179Z,53.50
2018-07-10T00:34:06.067Z,53.50
2018-07-10T00:35:08.737Z,53.10
2018-07-10T00:36:06.196Z,53.10
2018-07-10T00:37:11.244Z,53.20
2018-07-10T00:38:05.729Z,53.20
2018-07-10T00:39:09.191Z,53.50
2018-07-10T00:40:08.176Z,53.10
2018-07-10T00:41:05.797Z,53.10
2018-07-10T00:42:09.792Z,53.10
2018-07-10T00:43:06.148Z,53.00
2018-07-10T00:44:10.852Z,53.00
2018-07-10T00:45:09.081Z,53.10
2018-07-10T00:46:08.439Z,53.00
2018-07-10T00:47:06.069Z,52.90
2018-07-10T00:48:09.879Z,53.20
2018-07-10T00:49:09.511Z,53.30
2018-07-10T00:50:05.865Z,53.30
2018-07-10T00:51:06.883Z,53.60
2018-07-10T00:52:06.084Z,53.30
2018-07-10T00:53:05.563Z,53.50
2018-07-10T00:54:06.447Z,53.90
2018-07-10T00:55:06.301Z,54.40
2018-07-10T00:56:05.467Z,54.30
2018-07-10T00:57:05.510Z,54.20
2018-07-10T00:58:10.636Z,54.10
2018-07-10T00:59:09.357Z,54.20
2018-07-10T01:00:05.769Z,54.20
2018-07-10T01:01:06.198Z,54.10
2018-07-10T01:02:05.820Z,54.40
2018-07-10T01:03:10.627Z,54.50
2018-07-10T01:04:05.964Z,54.50
2018-07-10T01:05:05.683Z,55.50
2018-07-10T01:06:10.417Z,55.10
2018-07-10T01:07:08.317Z,55.50
2018-07-10T01:08:10.676Z,55.50
2018-07-10T01:09:09.167Z,56.50
2018-07-10T01:10:08.368Z,56.70
2018-07-10T01:11:06.342Z,56.70
2018-07-10T01:12:05.898Z,57.10
2018-07-10T01:13:06.314Z,57.40
2018-07-10T01:14:06.742Z,57.90
2018-07-10T01:15:08.979Z,58.70
2018-07-10T01:16:11.533Z,59.90
2018-07-10T01:17:06.171Z,60.00
2018-07-10T01:18:08.796Z,60.60
2018-07-10T01:19:06.130Z,60.60
2018-07-10T01:20:05.659Z,60.60
2018-07-10T01:21:05.900Z,60.80
2018-07-10T01:22:11.655Z,61.40
2018-07-10T01:23:09.274Z,62.00
2018-07-10T01:24:13.982Z,62.10
2018-07-10T01:25:10.507Z,62.00
2018-07-10T01:26:06.509Z,63.00
2018-07-10T01:27:06.205Z,63.00
2018-07-10T01:28:05.688Z,63.30
2018-07-10T01:29:06.112Z,63.40
2018-07-10T01:30:13.219Z,65.30
2018-07-10T01:31:05.811Z,65.40
2018-07-10T01:32:05.520Z,65.20
2018-07-10T01:33:08.684Z,65.80
2018-07-10T01:34:06.365Z,65.80
2018-07-10T01:35:06.073Z,66.90
2018-07-10T01:36:06.561Z,66.60
2018-07-10T01:37:06.043Z,66.70
2018-07-10T01:38:15.583Z,67.50
2018-07-10T01:39:06.111Z,67.00
2018-07-10T01:40:10.660Z,66.90
2018-07-10T01:41:06.103Z,66.90
2018-07-10T01:42:05.831Z,67.00
2018-07-10T01:43:09.388Z,67.20
2018-07-10T01:44:05.715Z,67.20
2018-07-10T01:45:09.025Z,67.80
2018-07-10T01:46:09.107Z,67.80
2018-07-10T01:47:08.415Z,69.20
2018-07-10T01:48:06.899Z,69.10
2018-07-10T01:49:05.408Z,68.60
2018-07-10T01:50:09.937Z,68.80
2018-07-10T01:51:11.371Z,68.90
2018-07-10T01:52:08.542Z,69.70
2018-07-10T01:53:05.910Z,69.70
2018-07-10T01:54:09.437Z,69.60
2018-07-10T01:55:05.924Z,69.60
2018-07-10T01:56:06.650Z,69.50
2018-07-10T01:57:06.041Z,70.20
2018-07-10T01:58:10.123Z,70.60
2018-07-10T01:59:08.044Z,70.50
2018-07-10T02:00:05.352Z,70.50
2018-07-10T02:01:06.516Z,70.20
2018-07-10T02:02:05.636Z,71.00
2018-07-10T02:03:07.296Z,70.80
2018-07-10T02:04:11.783Z,71.00
2018-07-10T02:05:09.435Z,71.00
2018-07-10T02:06:06.170Z,71.10
2018-07-10T02:07:06.059Z,71.30
2018-07-10T02:08:11.176Z,71.10
2018-07-10T02:09:09.730Z,71.60
2018-07-10T02:10:06.132Z,71.60
2018-07-10T02:11:05.609Z,71.80
2018-07-10T02:12:06.498Z,72.30
2018-07-10T02:13:05.895Z,71.80
2018-07-10T02:14:06.109Z,71.80
2018-07-10T02:15:09.598Z,71.60
2018-07-10T02:16:09.314Z,72.00
2018-07-10T02:17:05.891Z,72.00
2018-07-10T02:18:05.663Z,72.00
2018-07-10T02:19:06.446Z,72.60
2018-07-10T02:20:06.089Z,72.40
2018-07-10T02:21:10.587Z,72.50
2018-07-10T02:22:05.575Z,72.90
2018-07-10T02:23:05.957Z,72.50
2018-07-10T02:24:05.940Z,73.40
2018-07-10T02:25:05.395Z,73.00
2018-07-10T02:26:05.994Z,73.20
2018-07-10T02:27:06.337Z,73.10
2018-07-10T02:28:06.231Z,73.20
2018-07-10T02:29:10.475Z,72.80
2018-07-10T02:30:05.870Z,73.10
2018-07-10T02:31:05.918Z,73.00
2018-07-10T02:32:08.900Z,73.00
2018-07-10T02:33:06.673Z,73.00
2018-07-10T02:34:09.540Z,73.00
2018-07-10T02:35:05.976Z,73.10
2018-07-10T02:36:06.182Z,73.50
2018-07-10T02:37:09.468Z,74.00
2018-07-10T02:38:08.336Z,74.00
2018-07-10T02:39:05.822Z,74.10
2018-07-10T02:40:05.985Z,73.90
2018-07-10T02:41:06.114Z,74.00
2018-07-10T02:42:05.979Z,74.10
2018-07-10T02:43:13.223Z,74.00
2018-07-10T02:44:05.904Z,74.00
2018-07-10T02:45:08.034Z,74.10
2018-07-10T02:46:05.662Z,74.10
2018-07-10T02:47:06.631Z,74.40
2018-07-10T02:48:13.558Z,73.90
2018-07-10T02:49:06.660Z,73.90
2018-07-10T02:50:08.890Z,74.30
2018-07-10T02:51:06.382Z,74.40
2018-07-10T02:52:06.164Z,74.20
2018-07-10T02:53:09.444Z,74.50
2018-07-10T02:54:06.529Z,74.50
2018-07-10T02:55:06.601Z,74.40
2018-07-10T02:56:11.101Z,74.50
2018-07-10T02:57:05.433Z,74.50
2018-07-10T02:58:05.879Z,74.50
2018-07-10T02:59:10.424Z,75.00
2018-07-10T03:00:08.098Z,75.20
2018-07-10T03:01:05.949Z,75.20
2018-07-10T03:02:09.517Z,74.80
2018-07-10T03:03:06.368Z,74.80
2018-07-10T03:04:06.149Z,74.90
2018-07-10T03:05:05.471Z,74.70
2018-07-10T03:06:08.607Z,74.90
2018-07-10T03:07:06.117Z,74.90
2018-07-10T03:08:05.925Z,74.60
2018-07-10T03:09:08.639Z,74.80
2018-07-10T03:10:06.027Z,74.80
2018-07-10T03:11:06.099Z,74.90
2018-07-10T03:12:05.611Z,75.10
2018-07-10T03:13:09.871Z,75.30
2018-07-10T03:14:05.852Z,75.30
2018-07-10T03:15:08.644Z,75.00
2018-07-10T03:16:09.378Z,74.80
2018-07-10T03:17:06.333Z,74.80
2018-07-10T03:18:05.866Z,75.10
2018-07-10T03:19:06.264Z,75.50
2018-07-10T03:20:06.066Z,75.60
2018-07-10T03:21:05.849Z,75.60
2018-07-10T03:22:06.336Z,75.70
2018-07-10T03:23:11.037Z,75.60
2018-07-10T03:24:10.696Z,75.60
2018-07-10T03:25:06.421Z,75.50
2018-07-10T03:26:10.994Z,75.20
2018-07-10T03:27:08.018Z,75.20
2018-07-10T03:28:06.340Z,75.20
2018-07-10T03:29:06.123Z,75.10
2018-07-10T03:30:06.109Z,75.60
2018-07-10T03:31:06.012Z,75.50
2018-07-10T03:32:05.605Z,76.10
2018-07-10T03:33:06.680Z,75.80
2018-07-10T03:34:06.240Z,75.70
2018-07-10T03:35:10.646Z,75.60
2018-07-10T03:36:05.846Z,76.00
2018-07-10T03:37:06.374Z,76.20
2018-07-10T03:38:08.349Z,76.20
2018-07-10T03:39:06.074Z,76.10
2018-07-10T03:40:06.538Z,76.20
2018-07-10T03:41:06.597Z,76.40
2018-07-10T03:42:06.261Z,76.30
2018-07-10T03:43:09.201Z,76.50
2018-07-10T03:44:10.606Z,76.50
2018-07-10T03:45:05.515Z,76.20
2018-07-10T03:46:05.934Z,76.10
2018-07-10T03:47:08.006Z,76.20
2018-07-10T03:48:05.410Z,76.20
2018-07-10T03:49:08.471Z,76.30
2018-07-10T03:50:06.137Z,76.30
2018-07-10T03:51:05.891Z,76.30
2018-07-10T03:52:05.843Z,76.10
2018-07-10T03:53:05.949Z,76.30
2018-07-10T03:54:11.810Z,76.30
2018-07-10T03:55:11.267Z,76.20
2018-07-10T03:56:05.630Z,76.30
2018-07-10T03:57:11.234Z,76.80
2018-07-10T03:58:06.177Z,77.00
2018-07-10T03:59:10.736Z,76.80
2018-07-10T04:00:06.167Z,76.80
2018-07-10T04:01:08.797Z,76.90
2018-07-10T04:02:11.225Z,76.90
2018-07-10T04:03:06.718Z,76.70
2018-07-10T04:04:06.059Z,77.00
2018-07-10T04:05:06.701Z,77.20
2018-07-10T04:06:06.242Z,77.00
2018-07-10T04:07:08.937Z,76.90
2018-07-10T04:08:06.295Z,76.90
2018-07-10T04:09:08.591Z,77.20
2018-07-10T04:10:06.233Z,77.20
2018-07-10T04:11:05.970Z,77.00
2018-07-10T04:12:08.780Z,77.10
2018-07-10T04:13:06.120Z,77.10
2018-07-10T04:14:05.965Z,77.10
2018-07-10T04:15:05.451Z,77.20
2018-07-10T04:16:06.299Z,77.00
2018-07-10T04:17:06.376Z,77.20
2018-07-10T04:18:06.127Z,77.20
2018-07-10T04:19:08.492Z,77.10
2018-07-10T04:20:05.999Z,77.10
2018-07-10T04:21:05.784Z,77.00
2018-07-10T04:22:10.777Z,77.10
2018-07-10T04:23:06.130Z,77.20
2018-07-10T04:24:06.263Z,77.30
2018-07-10T04:25:11.733Z,77.50
2018-07-10T04:26:06.581Z,77.70
2018-07-10T04:27:06.156Z,77.50
2018-07-10T04:28:08.181Z,77.90
2018-07-10T04:29:10.493Z,77.80
2018-07-10T04:30:06.730Z,77.80
2018-07-10T04:31:05.892Z,77.70
2018-07-10T04:32:05.640Z,77.80
2018-07-10T04:33:06.134Z,77.80
2018-07-10T04:34:10.742Z,77.70
2018-07-10T04:35:06.125Z,77.60
2018-07-10T04:36:05.746Z,77.70
2018-07-10T04:37:11.310Z,77.80
2018-07-10T04:38:06.248Z,77.80
2018-07-10T04:39:10.836Z,77.70
2018-07-10T04:40:06.524Z,77.60
2018-07-10T04:41:06.178Z,77.50
2018-07-10T04:42:14.452Z,78.20
2018-07-10T04:43:08.862Z,77.80
2018-07-10T04:44:06.223Z,77.70
2018-07-10T04:45:06.122Z,77.80
2018-07-10T04:46:06.776Z,77.80
2018-07-10T04:47:06.695Z,77.80
2018-07-10T04:48:06.652Z,77.80
2018-07-10T04:49:11.387Z,77.70
2018-07-10T04:50:05.956Z,77.90
2018-07-10T04:51:05.707Z,77.90
2018-07-10T04:52:06.137Z,77.90
2018-07-10T04:53:08.968Z,77.90
2018-07-10T04:54:05.409Z,77.90
2018-07-10T04:55:06.064Z,78.00
2018-07-10T04:56:10.202Z,77.70
2018-07-10T04:57:05.612Z,77.70
2018-07-10T04:58:11.347Z,77.60
2018-07-10T04:59:10.796Z,77.60
2018-07-10T05:00:06.151Z,77.70
2018-07-10T05:01:05.841Z,77.80
2018-07-10T05:02:06.190Z,77.60
2018-07-10T05:03:06.207Z,77.70
2018-07-10T05:04:06.609Z,77.70
2018-07-10T05:05:08.814Z,78.00
2018-07-10T05:06:05.570Z,77.90
2018-07-10T05:07:11.300Z,77.90
2018-07-10T05:08:08.715Z,77.90
2018-07-10T05:09:06.334Z,77.90
2018-07-10T05:10:05.889Z,78.00
2018-07-10T05:11:06.297Z,78.10
2018-07-10T05:12:06.265Z,78.10
2018-07-10T05:13:06.601Z,78.30
2018-07-10T05:14:09.342Z,78.30
2018-07-10T05:15:08.978Z,78.30
2018-07-10T05:16:10.559Z,78.30
2018-07-10T05:17:06.484Z,78.30
2018-07-10T05:18:10.864Z,78.30
2018-07-10T05:19:11.454Z,78.40
2018-07-10T05:20:05.382Z,78.30
2018-07-10T05:21:08.489Z,78.10
2018-07-10T05:22:06.354Z,78.10
2018-07-10T05:23:11.089Z,78.10
2018-07-10T05:24:05.630Z,78.00
2018-07-10T05:25:11.266Z,78.00
2018-07-10T05:26:10.756Z,78.10
2018-07-10T05:27:05.876Z,78.00
2018-07-10T05:28:10.960Z,78.20
2018-07-10T05:29:06.397Z,78.20
2018-07-10T05:30:11.115Z,78.40
2018-07-10T05:31:09.098Z,78.20
2018-07-10T05:32:05.456Z,78.20
2018-07-10T05:33:09.087Z,77.70
2018-07-10T05:34:10.579Z,77.70
2018-07-10T05:35:09.270Z,77.60
2018-07-10T05:36:05.924Z,77.60
2018-07-10T05:37:08.374Z,77.10
2018-07-10T05:38:06.200Z,77.10
2018-07-10T05:39:09.628Z,77.30
2018-07-10T05:40:10.517Z,77.50
2018-07-10T05:41:06.101Z,77.40
2018-07-10T05:42:09.246Z,77.30
2018-07-10T05:43:05.898Z,77.30
2018-07-10T05:44:05.925Z,77.40
2018-07-10T05:45:06.335Z,77.40
2018-07-10T05:46:06.021Z,77.70
2018-07-10T05:47:06.893Z,77.90
2018-07-10T05:48:06.264Z,77.90
2018-07-10T05:49:06.160Z,78.20
2018-07-10T05:50:05.659Z,78.10
2018-07-10T05:51:06.619Z,78.60
2018-07-10T05:52:08.507Z,77.90
2018-07-10T05:53:09.445Z,78.10
2018-07-10T05:54:06.060Z,78.10
2018-07-10T05:55:10.809Z,78.40
2018-07-10T05:56:06.164Z,79.10
2018-07-10T05:57:06.420Z,79.30
2018-07-10T05:58:05.454Z,79.00
2018-07-10T05:59:05.933Z,79.20
2018-07-10T06:00:05.528Z,79.70
2018-07-10T06:01:06.294Z,79.40
2018-07-10T06:02:09.204Z,79.10
2018-07-10T06:03:08.851Z,79.20
2018-07-10T06:04:08.689Z,79.50
2018-07-10T06:05:05.998Z,79.50
2018-07-10T06:06:08.590Z,79.50
2018-07-10T06:07:10.982Z,78.60
2018-07-10T06:08:09.479Z,78.30
2018-07-10T06:09:06.385Z,78.30
2018-07-10T06:10:11.135Z,78.60
2018-07-10T06:11:10.616Z,79.00
2018-07-10T06:12:06.001Z,78.90
2018-07-10T06:13:08.648Z,78.70
2018-07-10T06:14:06.479Z,78.80
2018-07-10T06:15:08.915Z,78.50
2018-07-10T06:16:06.429Z,78.40
2018-07-10T06:17:06.109Z,78.80
2018-07-10T06:18:10.666Z,78.80
2018-07-10T06:19:06.338Z,78.80
2018-07-10T06:20:08.816Z,78.30
2018-07-10T06:21:05.820Z,78.20
2018-07-10T06:22:09.076Z,78.80
2018-07-10T06:23:05.886Z,78.80
2018-07-10T06:24:06.061Z,78.40
2018-07-10T06:25:05.884Z,78.20
2018-07-10T06:26:06.422Z,77.70
2018-07-10T06:27:11.356Z,77.80
2018-07-10T06:28:05.697Z,77.90
2018-07-10T06:29:06.674Z,78.20
2018-07-10T06:30:10.673Z,77.90
2018-07-10T06:31:05.991Z,77.80
2018-07-10T06:32:05.558Z,77.90
2018-07-10T06:33:05.698Z,78.10
2018-07-10T06:34:08.974Z,77.90
2018-07-10T06:35:06.540Z,77.90
2018-07-10T06:36:06.283Z,78.30
2018-07-10T06:37:06.425Z,78.20
2018-07-10T06:38:05.995Z,78.40
2018-07-10T06:39:08.757Z,78.60
2018-07-10T06:40:06.778Z,78.60
2018-07-10T06:41:06.616Z,78.80
2018-07-10T06:42:06.234Z,78.80
2018-07-10T06:43:08.469Z,78.40
2018-07-10T06:44:05.966Z,78.40
2018-07-10T06:45:09.305Z,78.20
2018-07-10T06:46:08.187Z,78.00
2018-07-10T06:47:10.511Z,78.00
2018-07-10T06:48:05.725Z,77.60
2018-07-10T06:49:14.944Z,78.00
2018-07-10T06:50:06.387Z,78.00
2018-07-10T06:51:05.743Z,78.30
2018-07-10T06:52:08.362Z,78.00
2018-07-10T06:53:09.542Z,77.80
2018-07-10T06:54:09.413Z,78.30
2018-07-10T06:55:06.120Z,78.30
2018-07-10T06:56:10.436Z,78.70
2018-07-10T06:57:06.103Z,79.20
2018-07-10T06:58:06.162Z,79.40
2018-07-10T06:59:14.911Z,79.10
2018-07-10T07:00:05.898Z,79.20
2018-07-10T07:01:06.361Z,79.60
2018-07-10T07:02:05.973Z,79.60
2018-07-10T07:03:05.379Z,79.30
2018-07-10T07:04:05.642Z,79.70
2018-07-10T07:05:09.020Z,79.80
2018-07-10T07:06:05.774Z,79.80
2018-07-10T07:07:08.172Z,80.00
2018-07-10T07:08:05.702Z,80.00
2018-07-10T07:09:08.520Z,80.10
2018-07-10T07:10:06.041Z,80.10
2018-07-10T07:11:08.164Z,79.90
2018-07-10T07:12:05.536Z,79.90
2018-07-10T07:13:09.155Z,79.60
2018-07-10T07:14:05.594Z,79.60
2018-07-10T07:15:06.316Z,79.90
2018-07-10T07:16:06.001Z,80.00
2018-07-10T07:17:06.117Z,80.30
2018-07-10T07:18:11.238Z,80.60
2018-07-10T07:19:05.929Z,80.40
2018-07-10T07:20:06.140Z,80.30
2018-07-10T07:21:06.331Z,80.30
2018-07-10T07:22:05.656Z,80.10
2018-07-10T07:23:06.202Z,80.10
2018-07-10T07:24:05.964Z,80.40
2018-07-10T07:25:06.099Z,80.20
2018-07-10T07:26:05.451Z,80.40
2018-07-10T07:27:10.815Z,80.30
2018-07-10T07:28:06.141Z,80.40
2018-07-10T07:29:08.285Z,80.30
2018-07-10T07:30:10.832Z,80.10
2018-07-10T07:31:06.303Z,80.00
2018-07-10T07:32:06.152Z,80.00
2018-07-10T07:33:11.655Z,80.10
2018-07-10T07:34:06.474Z,80.10
2018-07-10T07:35:10.936Z,79.70
2018-07-10T07:36:06.860Z,79.70
2018-07-10T07:37:05.972Z,79.70
2018-07-10T07:38:09.215Z,79.40
2018-07-10T07:39:05.955Z,79.40
2018-07-10T07:40:06.730Z,79.50
2018-07-10T07:41:09.290Z,80.00
2018-07-10T07:42:05.779Z,80.00
2018-07-10T07:43:06.394Z,79.60
2018-07-10T07:44:11.380Z,79.40
2018-07-10T07:45:09.179Z,79.30
2018-07-10T07:46:10.553Z,79.30
2018-07-10T07:47:07.039Z,79.40
2018-07-10T07:48:06.315Z,79.40
2018-07-10T07:49:08.844Z,78.90
2018-07-10T07:50:06.382Z,78.90
2018-07-10T07:51:11.109Z,78.10
2018-07-10T07:52:05.388Z,78.10
2018-07-10T07:53:05.872Z,78.10
2018-07-10T07:54:09.284Z,78.40
2018-07-10T07:55:08.146Z,78.40
2018-07-10T07:56:06.052Z,78.30
2018-07-10T07:57:06.153Z,78.50
2018-07-10T07:58:05.510Z,78.80
2018-07-10T07:59:09.301Z,79.10
2018-07-10T08:00:05.784Z,79.20
2018-07-10T08:01:06.917Z,79.60
2018-07-10T08:02:10.604Z,79.50
2018-07-10T08:03:06.026Z,79.50
2018-07-10T08:04:05.646Z,79.50
2018-07-10T08:05:06.276Z,79.40
2018-07-10T08:06:05.917Z,79.30
2018-07-10T08:07:10.829Z,79.40
2018-07-10T08:08:09.371Z,79.40
2018-07-10T08:09:06.745Z,79.30
2018-07-10T08:10:06.375Z,79.10
2018-07-10T08:11:08.833Z,80.10
2018-07-10T08:12:06.597Z,80.10
2018-07-10T08:13:06.761Z,80.20
2018-07-10T08:14:06.037Z,80.20
2018-07-10T08:15:10.716Z,80.30
2018-07-10T08:16:06.366Z,80.30
2018-07-10T08:17:11.275Z,80.40
2018-07-10T08:18:05.677Z,80.60
2018-07-10T08:19:15.028Z,80.40
2018-07-10T08:20:06.038Z,80.30
2018-07-10T08:21:06.040Z,80.30
2018-07-10T08:22:05.648Z,80.50
2018-07-10T08:23:06.204Z,80.60
2018-07-10T08:24:07.025Z,80.60
2018-07-10T08:25:06.256Z,80.70
2018-07-10T08:26:08.463Z,80.20
2018-07-10T08:27:06.427Z,80.20
2018-07-10T08:28:05.601Z,80.10
2018-07-10T08:29:05.411Z,79.90
2018-07-10T08:30:09.260Z,80.30
2018-07-10T08:31:08.235Z,80.50
2018-07-10T08:32:05.648Z,80.60
2018-07-10T08:33:06.194Z,80.40
2018-07-10T08:34:08.242Z,80.00
2018-07-10T08:35:06.294Z,80.00
2018-07-10T08:36:11.252Z,80.00
2018-07-10T08:37:08.275Z,80.30
2018-07-10T08:38:05.938Z,80.30
2018-07-10T08:39:06.188Z,80.50
2018-07-10T08:40:08.321Z,79.60
2018-07-10T08:41:05.732Z,79.60
2018-07-10T08:42:06.358Z,79.40
2018-07-10T08:43:06.393Z,79.20
2018-07-10T08:44:08.932Z,79.10
2018-07-10T08:45:11.337Z,79.00
2018-07-10T08:46:08.344Z,79.10
2018-07-10T08:47:09.096Z,79.50
2018-07-10T08:48:05.631Z,79.50
2018-07-10T08:49:06.228Z,79.70
2018-07-10T08:50:05.725Z,79.30
2018-07-10T08:51:06.328Z,79.10
2018-07-10T08:52:05.804Z,78.80
2018-07-10T08:53:05.939Z,78.70
2018-07-10T08:54:06.376Z,78.50
2018-07-10T08:55:06.196Z,78.70
2018-07-10T08:56:05.776Z,78.70
2018-07-10T08:57:05.390Z,78.50
2018-07-10T08:58:06.609Z,78.70
2018-07-10T08:59:10.632Z,78.80
2018-07-10T09:00:06.203Z,78.80
2018-07-10T09:01:05.969Z,79.00
2018-07-10T09:02:11.163Z,79.30
2018-07-10T09:03:08.975Z,79.90
2018-07-10T09:04:05.469Z,79.90
2018-07-10T09:05:05.965Z,79.50
2018-07-10T09:06:10.576Z,78.90
2018-07-10T09:07:08.700Z,78.40
2018-07-10T09:08:06.202Z,78.30
2018-07-10T09:09:06.036Z,78.10
2018-07-10T09:10:05.852Z,78.20
2018-07-10T09:11:08.024Z,78.10
2018-07-10T09:12:05.369Z,78.10
2018-07-10T09:13:08.390Z,77.70
2018-07-10T09:14:11.144Z,77.80
2018-07-10T09:15:05.953Z,77.50
2018-07-10T09:16:05.407Z,77.50
2018-07-10T09:17:06.150Z,77.80
2018-07-10T09:18:05.988Z,78.00
2018-07-10T09:19:08.033Z,77.60
2018-07-10T09:20:08.895Z,77.50
2018-07-10T09:21:06.580Z,77.60
2018-07-10T09:22:05.602Z,77.60
2018-07-10T09:23:05.714Z,77.40
2018-07-10T09:24:08.724Z,77.50
2018-07-10T09:25:11.342Z,77.50
2018-07-10T09:26:06.292Z,77.60
2018-07-10T09:27:06.772Z,77.80
2018-07-10T09:28:06.261Z,78.20
2018-07-10T09:29:05.822Z,77.90
2018-07-10T09:30:08.922Z,77.00
2018-07-10T09:31:06.374Z,77.00
2018-07-10T09:32:08.469Z,77.00
2018-07-10T09:33:05.887Z,77.00
2018-07-10T09:34:09.624Z,77.50
2018-07-10T09:35:08.516Z,77.70
2018-07-10T09:36:10.874Z,77.50
2018-07-10T09:37:06.214Z,77.30
2018-07-10T09:38:06.002Z,76.80
2018-07-10T09:39:10.709Z,76.70
2018-07-10T09:40:06.158Z,76.70
2018-07-10T09:41:05.525Z,76.50
2018-07-10T09:42:08.472Z,75.70
2018-07-10T09:43:05.918Z,75.70
2018-07-10T09:44:09.213Z,75.00
2018-07-10T09:45:05.687Z,74.90
2018-07-10T09:46:06.057Z,74.50
2018-07-10T09:47:05.781Z,73.70
2018-07-10T09:48:06.507Z,73.50
2018-07-10T09:49:05.757Z,73.30
2018-07-10T09:50:06.945Z,73.50
2018-07-10T09:51:07.910Z,73.50
2018-07-10T09:52:06.287Z,73.40
2018-07-10T09:53:10.888Z,72.30
2018-07-10T09:54:05.815Z,72.30
2018-07-10T09:55:11.150Z,71.50
2018-07-10T09:56:06.079Z,71.50
2018-07-10T09:57:09.565Z,71.00
2018-07-10T09:58:09.100Z,70.80
2018-07-10T09:59:05.497Z,70.80
2018-07-10T10:00:05.548Z,70.70
2018-07-10T10:01:08.548Z,71.20
2018-07-10T10:02:05.942Z,71.20
2018-07-10T10:03:06.000Z,71.90
2018-07-10T10:04:06.182Z,71.80
2018-07-10T10:05:06.256Z,71.80
2018-07-10T10:06:06.118Z,72.00
2018-07-10T10:07:08.517Z,71.60
2018-07-10T10:08:05.464Z,71.60
2018-07-10T10:09:07.144Z,68.40
2018-07-10T10:10:06.828Z,68.10
2018-07-10T10:11:11.469Z,68.20
2018-07-10T10:12:10.746Z,67.30
2018-07-10T10:13:06.358Z,66.60
2018-07-10T10:14:05.711Z,67.00
2018-07-10T10:15:11.301Z,65.20
2018-07-10T10:16:06.313Z,65.30
2018-07-10T10:17:10.750Z,64.50
2018-07-10T10:18:06.724Z,64.50
2018-07-10T10:19:06.258Z,65.00
2018-07-10T10:20:10.636Z,64.70
2018-07-10T10:21:09.491Z,64.50
2018-07-10T10:22:10.883Z,64.40
2018-07-10T10:23:09.068Z,64.90
2018-07-10T10:24:06.091Z,64.90
2018-07-10T10:25:08.670Z,63.90
2018-07-10T10:26:06.592Z,63.90
2018-07-10T10:27:10.973Z,64.30
2018-07-10T10:28:08.501Z,64.50
2018-07-10T10:29:06.521Z,64.50
2018-07-10T10:30:08.367Z,62.10
2018-07-10T10:31:10.856Z,62.10
2018-07-10T10:32:05.732Z,61.70
2018-07-10T10:33:06.264Z,62.50
2018-07-10T10:34:10.830Z,62.80
2018-07-10T10:35:06.343Z,62.70
2018-07-10T10:36:07.957Z,62.00
2018-07-10T10:37:11.531Z,62.00
2018-07-10T10:38:10.991Z,61.40
2018-07-10T10:39:06.228Z,61.40
2018-07-10T10:40:05.711Z,61.40
2018-07-10T10:41:05.952Z,60.50
2018-07-10T10:42:05.822Z,59.60
2018-07-10T10:43:06.355Z,59.40
2018-07-10T10:44:09.026Z,56.70
2018-07-10T10:45:05.404Z,56.60
2018-07-10T10:46:05.762Z,56.70
2018-07-10T10:47:05.407Z,56.80
2018-07-10T10:48:05.831Z,56.30
2018-07-10T10:49:05.648Z,57.00
2018-07-10T10:50:06.210Z,57.80
2018-07-10T10:51:11.125Z,58.00
2018-07-10T10:52:06.967Z,58.10
2018-07-10T10:53:06.561Z,57.70
2018-07-10T10:54:06.538Z,57.40
2018-07-10T10:55:05.670Z,57.50
2018-07-10T10:56:05.691Z,58.10
2018-07-10T10:57:06.667Z,58.30
2018-07-10T10:58:11.291Z,58.10
2018-07-10T10:59:10.690Z,57.60
2018-07-10T11:00:08.685Z,58.00
2018-07-10T11:01:06.291Z,58.00
2018-07-10T11:02:05.548Z,58.20
2018-07-10T11:03:06.516Z,59.00
2018-07-10T11:04:10.392Z,59.30
2018-07-10T11:05:05.710Z,59.20
2018-07-10T11:06:07.220Z,58.20
2018-07-10T11:07:06.071Z,58.00
2018-07-10T11:08:06.194Z,57.90
2018-07-10T11:09:08.816Z,57.70
2018-07-10T11:10:06.205Z,57.60
2018-07-10T11:11:09.238Z,57.20
2018-07-10T11:12:05.803Z,57.20
2018-07-10T11:13:11.658Z,57.20
2018-07-10T11:14:06.499Z,57.70
2018-07-10T11:15:10.702Z,57.80
2018-07-10T11:16:06.069Z,57.80
2018-07-10T11:17:05.976Z,57.90
2018-07-10T11:18:08.819Z,58.10
2018-07-10T11:19:09.547Z,57.90
2018-07-10T11:20:05.870Z,57.90
2018-07-10T11:21:06.100Z,57.00
2018-07-10T11:22:08.865Z,57.10
2018-07-10T11:23:06.314Z,57.10
2018-07-10T11:24:10.559Z,57.20
2018-07-10T11:25:05.945Z,57.10
2018-07-10T11:26:06.256Z,57.10
2018-07-10T11:27:08.086Z,56.40
2018-07-10T11:28:06.548Z,56.40
2018-07-10T11:29:05.769Z,55.40
2018-07-10T11:30:06.604Z,55.70
2018-07-10T11:31:06.204Z,55.40
2018-07-10T11:32:05.804Z,55.60
2018-07-10T11:33:05.414Z,56.00
2018-07-10T11:34:06.019Z,55.80
2018-07-10T11:35:06.189Z,55.50
2018-07-10T11:36:06.129Z,54.60
2018-07-10T11:37:06.060Z,54.60
2018-07-10T11:38:06.229Z,54.30
2018-07-10T11:39:05.982Z,54.60
2018-07-10T11:40:10.563Z,54.90
2018-07-10T11:41:06.501Z,54.70
2018-07-10T11:42:09.089Z,54.70
2018-07-10T11:43:05.496Z,54.60
2018-07-10T11:44:05.800Z,54.80
2018-07-10T11:45:06.079Z,54.90
2018-07-10T11:46:06.064Z,54.80
2018-07-10T11:47:05.960Z,54.90
2018-07-10T11:48:06.268Z,55.30
2018-07-10T11:49:05.557Z,55.50
2018-07-10T11:50:06.426Z,54.20
2018-07-10T11:51:06.045Z,53.90
2018-07-10T11:52:09.093Z,53.40
2018-07-10T11:53:05.826Z,53.50
2018-07-10T11:54:08.409Z,53.60
2018-07-10T11:55:05.805Z,53.60
2018-07-10T11:56:13.933Z,53.50
2018-07-10T11:57:08.979Z,53.40
2018-07-10T11:58:10.591Z,53.80
2018-07-10T11:59:06.285Z,53.80
2018-07-10T12:00:09.115Z,54.00
2018-07-10T12:01:05.714Z,54.00
2018-07-10T12:02:05.881Z,53.80
2018-07-10T12:03:08.944Z,53.50
2018-07-10T12:04:11.369Z,53.70
2018-07-10T12:05:06.570Z,53.70
2018-07-10T12:06:06.673Z,53.90
2018-07-10T12:07:06.342Z,54.20
2018-07-10T12:08:06.183Z,54.40
2018-07-10T12:09:11.145Z,54.20
2018-07-10T12:10:05.817Z,54.40
2018-07-10T12:11:08.652Z,53.30
2018-07-10T12:12:05.982Z,53.20
2018-07-10T12:13:05.734Z,53.20
2018-07-10T12:14:06.301Z,53.00
2018-07-10T12:15:09.009Z,52.70
2018-07-10T12:16:06.543Z,52.70
2018-07-10T12:17:07.386Z,52.90
2018-07-10T12:18:08.011Z,52.20
2018-07-10T12:19:10.595Z,52.30
2018-07-10T12:20:06.031Z,52.40
2018-07-10T12:21:08.064Z,52.20
2018-07-10T12:22:05.412Z,52.20
2018-07-10T12:23:06.406Z,52.00
2018-07-10T12:24:08.111Z,51.80
2018-07-10T12:25:06.523Z,51.80
2018-07-10T12:26:06.134Z,50.90
2018-07-10T12:27:07.951Z,50.90
2018-07-10T12:28:06.699Z,50.90
2018-07-10T12:29:06.441Z,51.10
2018-07-10T12:30:06.217Z,50.80
2018-07-10T12:31:11.188Z,50.30
2018-07-10T12:32:08.511Z,49.10
2018-07-10T12:33:08.939Z,48.00
2018-07-10T12:34:09.900Z,48.30
2018-07-10T12:35:11.273Z,48.30
2018-07-10T12:36:10.782Z,47.90
2018-07-10T12:37:06.617Z,47.90
2018-07-10T12:38:05.723Z,48.00
2018-07-10T12:39:05.750Z,48.00
2018-07-10T12:40:08.933Z,48.50
2018-07-10T12:41:06.287Z,48.60
2018-07-10T12:42:05.603Z,48.60
2018-07-10T12:43:06.135Z,47.80
2018-07-10T12:44:06.324Z,47.60
2018-07-10T12:45:05.427Z,47.50
2018-07-10T12:46:06.045Z,47.60
2018-07-10T12:47:05.959Z,47.70
2018-07-10T12:48:06.730Z,48.00
2018-07-10T12:49:09.123Z,48.20
2018-07-10T12:50:05.811Z,48.20
2018-07-10T12:51:05.701Z,47.60
2018-07-10T12:52:06.681Z,46.40